sensor_id;sensor_type;location;lat;lon;timestamp;P1;durP1;ratioP1;P2;durP2;ratioP2
65636;SDS011;52327;42.622;23.316;2022-08-18T00:01:47;4.72;;;3.42;;
65636;SDS011;52327;42.622;23.316;2022-08-18T00:04:15;4.50;;;3.22;;
65636;SDS011;52327;42.622;23.316;2022-08-18T00:06:40;5.20;;;3.45;;
65636;SDS011;52327;42.622;23.316;2022-08-18T00:09:07;5.43;;;3.85;;
65636;SDS011;52327;42.622;23.316;2022-08-18T00:11:35;4.22;;;3.65;;
65636;SDS011;52327;42.622;23.316;2022-08-18T00:14:05;5.13;;;3.75;;
65636;SDS011;52327;42.622;23.316;2022-08-18T00:16:31;5.20;;;3.60;;
65636;SDS011;52327;42.622;23.316;2022-08-18T00:18:56;5.80;;;3.75;;
65636;SDS011;52327;42.622;23.316;2022-08-18T00:21:22;4.43;;;3.67;;
65636;SDS011;52327;42.622;23.316;2022-08-18T00:23:47;4.05;;;3.38;;
65636;SDS011;52327;42.622;23.316;2022-08-18T00:26:13;4.85;;;3.90;;
65636;SDS011;52327;42.622;23.316;2022-08-18T00:28:38;5.95;;;3.97;;
65636;SDS011;52327;42.622;23.316;2022-08-18T00:31:04;5.13;;;3.88;;
65636;SDS011;52327;42.622;23.316;2022-08-18T00:33:30;4.70;;;3.80;;
65636;SDS011;52327;42.622;23.316;2022-08-18T00:35:56;5.40;;;4.13;;
65636;SDS011;52327;42.622;23.316;2022-08-18T00:38:22;4.22;;;3.80;;
65636;SDS011;52327;42.622;23.316;2022-08-18T00:40:48;5.10;;;4.10;;
65636;SDS011;52327;42.622;23.316;2022-08-18T00:43:20;5.93;;;4.28;;
65636;SDS011;52327;42.622;23.316;2022-08-18T00:45:53;6.15;;;3.85;;
65636;SDS011;52327;42.622;23.316;2022-08-18T00:48:19;5.38;;;4.10;;
65636;SDS011;52327;42.622;23.316;2022-08-18T00:50:49;5.47;;;4.10;;
65636;SDS011;52327;42.622;23.316;2022-08-18T00:55:45;5.40;;;4.18;;
65636;SDS011;52327;42.622;23.316;2022-08-18T00:58:21;5.15;;;4.65;;
65636;SDS011;52327;42.622;23.316;2022-08-18T01:00:53;5.47;;;4.30;;
65636;SDS011;52327;42.622;23.316;2022-08-18T01:03:19;5.55;;;4.38;;
65636;SDS011;52327;42.622;23.316;2022-08-18T01:05:48;5.97;;;4.72;;
65636;SDS011;52327;42.622;23.316;2022-08-18T01:08:26;7.72;;;4.22;;
65636;SDS011;52327;42.622;23.316;2022-08-18T01:10:51;4.55;;;4.15;;
65636;SDS011;52327;42.622;23.316;2022-08-18T01:13:18;5.35;;;4.68;;
65636;SDS011;52327;42.622;23.316;2022-08-18T01:15:44;5.63;;;4.82;;
65636;SDS011;52327;42.622;23.316;2022-08-18T01:18:12;5.70;;;4.50;;
65636;SDS011;52327;42.622;23.316;2022-08-18T01:24:09;7.40;;;5.05;;
65636;SDS011;52327;42.622;23.316;2022-08-18T01:26:37;6.60;;;5.57;;
65636;SDS011;52327;42.622;23.316;2022-08-18T01:29:14;6.85;;;5.32;;
65636;SDS011;52327;42.622;23.316;2022-08-18T01:31:45;6.28;;;5.35;;
65636;SDS011;52327;42.622;23.316;2022-08-18T01:34:14;7.53;;;5.47;;
65636;SDS011;52327;42.622;23.316;2022-08-18T01:36:40;5.60;;;5.00;;
65636;SDS011;52327;42.622;23.316;2022-08-18T01:39:08;6.22;;;4.90;;
65636;SDS011;52327;42.622;23.316;2022-08-18T01:41:35;6.13;;;5.20;;
65636;SDS011;52327;42.622;23.316;2022-08-18T01:44:02;6.97;;;5.28;;
65636;SDS011;52327;42.622;23.316;2022-08-18T01:46:29;6.15;;;4.82;;
65636;SDS011;52327;42.622;23.316;2022-08-18T01:48:58;5.90;;;4.45;;
65636;SDS011;52327;42.622;23.316;2022-08-18T01:51:25;6.28;;;5.22;;
65636;SDS011;52327;42.622;23.316;2022-08-18T01:53:52;7.38;;;4.97;;
65636;SDS011;52327;42.622;23.316;2022-08-18T01:56:17;5.43;;;4.88;;
65636;SDS011;52327;42.622;23.316;2022-08-18T01:58:43;7.07;;;5.05;;
65636;SDS011;52327;42.622;23.316;2022-08-18T02:01:10;5.28;;;4.38;;
65636;SDS011;52327;42.622;23.316;2022-08-18T02:03:40;5.85;;;4.68;;
65636;SDS011;52327;42.622;23.316;2022-08-18T02:06:10;8.13;;;5.55;;
65636;SDS011;52327;42.622;23.316;2022-08-18T02:08:37;5.32;;;4.53;;
65636;SDS011;52327;42.622;23.316;2022-08-18T02:11:03;5.38;;;4.65;;
65636;SDS011;52327;42.622;23.316;2022-08-18T02:13:29;7.95;;;5.05;;
65636;SDS011;52327;42.622;23.316;2022-08-18T02:15:54;7.60;;;5.00;;
65636;SDS011;52327;42.622;23.316;2022-08-18T02:18:21;5.93;;;5.32;;
65636;SDS011;52327;42.622;23.316;2022-08-18T02:20:49;5.90;;;4.80;;
65636;SDS011;52327;42.622;23.316;2022-08-18T02:23:14;9.02;;;5.28;;
65636;SDS011;52327;42.622;23.316;2022-08-18T02:25:41;5.93;;;5.32;;
65636;SDS011;52327;42.622;23.316;2022-08-18T02:28:07;6.22;;;5.20;;
65636;SDS011;52327;42.622;23.316;2022-08-18T02:30:33;5.50;;;5.00;;
65636;SDS011;52327;42.622;23.316;2022-08-18T02:33:01;6.72;;;5.20;;
65636;SDS011;52327;42.622;23.316;2022-08-18T02:38:03;6.38;;;4.80;;
65636;SDS011;52327;42.622;23.316;2022-08-18T02:40:30;6.97;;;5.00;;
65636;SDS011;52327;42.622;23.316;2022-08-18T02:42:59;5.90;;;4.72;;
65636;SDS011;52327;42.622;23.316;2022-08-18T02:45:30;5.88;;;4.85;;
65636;SDS011;52327;42.622;23.316;2022-08-18T02:47:56;6.15;;;5.15;;
65636;SDS011;52327;42.622;23.316;2022-08-18T02:50:22;7.93;;;5.70;;
65636;SDS011;52327;42.622;23.316;2022-08-18T02:52:47;6.70;;;5.40;;
65636;SDS011;52327;42.622;23.316;2022-08-18T02:55:13;5.93;;;5.22;;
65636;SDS011;52327;42.622;23.316;2022-08-18T02:57:44;8.88;;;4.40;;
65636;SDS011;52327;42.622;23.316;2022-08-18T03:00:14;6.00;;;4.78;;
65636;SDS011;52327;42.622;23.316;2022-08-18T03:02:44;5.78;;;4.72;;
65636;SDS011;52327;42.622;23.316;2022-08-18T03:05:11;5.18;;;4.65;;
65636;SDS011;52327;42.622;23.316;2022-08-18T03:07:36;6.07;;;4.55;;
65636;SDS011;52327;42.622;23.316;2022-08-18T03:10:02;6.88;;;4.70;;
65636;SDS011;52327;42.622;23.316;2022-08-18T03:12:28;5.22;;;4.53;;
65636;SDS011;52327;42.622;23.316;2022-08-18T03:14:54;5.68;;;4.65;;
65636;SDS011;52327;42.622;23.316;2022-08-18T03:17:19;6.47;;;5.05;;
65636;SDS011;52327;42.622;23.316;2022-08-18T03:19:45;5.72;;;4.68;;
65636;SDS011;52327;42.622;23.316;2022-08-18T03:22:10;6.40;;;5.07;;
65636;SDS011;52327;42.622;23.316;2022-08-18T03:24:36;4.90;;;4.45;;
65636;SDS011;52327;42.622;23.316;2022-08-18T03:27:05;5.20;;;4.07;;
65636;SDS011;52327;42.622;23.316;2022-08-18T03:29:31;9.77;;;4.32;;
65636;SDS011;52327;42.622;23.316;2022-08-18T03:31:58;9.65;;;5.05;;
65636;SDS011;52327;42.622;23.316;2022-08-18T03:34:28;8.00;;;4.80;;
65636;SDS011;52327;42.622;23.316;2022-08-18T03:36:54;9.73;;;4.63;;
65636;SDS011;52327;42.622;23.316;2022-08-18T03:39:19;5.00;;;4.50;;
65636;SDS011;52327;42.622;23.316;2022-08-18T03:41:47;5.10;;;4.40;;
65636;SDS011;52327;42.622;23.316;2022-08-18T03:44:14;6.15;;;4.45;;
65636;SDS011;52327;42.622;23.316;2022-08-18T03:46:41;7.82;;;5.10;;
65636;SDS011;52327;42.622;23.316;2022-08-18T03:49:08;7.22;;;4.47;;
65636;SDS011;52327;42.622;23.316;2022-08-18T03:51:34;5.60;;;4.43;;
65636;SDS011;52327;42.622;23.316;2022-08-18T03:54:01;7.07;;;4.75;;
65636;SDS011;52327;42.622;23.316;2022-08-18T03:56:29;5.88;;;4.38;;
65636;SDS011;52327;42.622;23.316;2022-08-18T03:58:58;4.82;;;4.32;;
65636;SDS011;52327;42.622;23.316;2022-08-18T04:01:33;5.78;;;4.50;;
65636;SDS011;52327;42.622;23.316;2022-08-18T04:04:03;7.47;;;4.50;;
65636;SDS011;52327;42.622;23.316;2022-08-18T04:06:31;5.95;;;4.45;;
65636;SDS011;52327;42.622;23.316;2022-08-18T04:08:59;5.60;;;4.75;;
65636;SDS011;52327;42.622;23.316;2022-08-18T04:11:25;5.13;;;3.97;;
65636;SDS011;52327;42.622;23.316;2022-08-18T04:13:53;6.72;;;4.47;;
65636;SDS011;52327;42.622;23.316;2022-08-18T04:16:21;5.00;;;4.50;;
65636;SDS011;52327;42.622;23.316;2022-08-18T04:18:48;5.43;;;4.57;;
65636;SDS011;52327;42.622;23.316;2022-08-18T04:21:13;5.55;;;4.32;;
65636;SDS011;52327;42.622;23.316;2022-08-18T04:23:39;4.88;;;4.35;;
65636;SDS011;52327;42.622;23.316;2022-08-18T04:26:06;6.13;;;5.07;;
65636;SDS011;52327;42.622;23.316;2022-08-18T04:28:32;6.78;;;4.93;;
65636;SDS011;52327;42.622;23.316;2022-08-18T04:30:58;6.72;;;4.57;;
65636;SDS011;52327;42.622;23.316;2022-08-18T04:33:29;5.88;;;4.68;;
65636;SDS011;52327;42.622;23.316;2022-08-18T04:35:54;5.93;;;5.00;;
65636;SDS011;52327;42.622;23.316;2022-08-18T04:38:21;9.13;;;5.43;;
65636;SDS011;52327;42.622;23.316;2022-08-18T04:40:47;7.65;;;5.80;;
65636;SDS011;52327;42.622;23.316;2022-08-18T04:43:13;7.22;;;5.20;;
65636;SDS011;52327;42.622;23.316;2022-08-18T04:45:48;7.25;;;5.53;;
65636;SDS011;52327;42.622;23.316;2022-08-18T04:48:15;5.88;;;4.93;;
65636;SDS011;52327;42.622;23.316;2022-08-18T04:50:41;8.43;;;6.18;;
65636;SDS011;52327;42.622;23.316;2022-08-18T04:53:06;6.55;;;5.85;;
65636;SDS011;52327;42.622;23.316;2022-08-18T04:55:51;7.38;;;5.68;;
65636;SDS011;52327;42.622;23.316;2022-08-18T04:58:19;6.53;;;5.70;;
65636;SDS011;52327;42.622;23.316;2022-08-18T05:00:45;9.27;;;6.15;;
65636;SDS011;52327;42.622;23.316;2022-08-18T05:03:12;7.28;;;6.13;;
65636;SDS011;52327;42.622;23.316;2022-08-18T05:05:37;10.40;;;6.53;;
65636;SDS011;52327;42.622;23.316;2022-08-18T05:08:03;8.48;;;6.20;;
65636;SDS011;52327;42.622;23.316;2022-08-18T05:10:29;8.05;;;5.95;;
65636;SDS011;52327;42.622;23.316;2022-08-18T05:12:55;9.75;;;6.90;;
65636;SDS011;52327;42.622;23.316;2022-08-18T05:15:21;9.35;;;7.03;;
65636;SDS011;52327;42.622;23.316;2022-08-18T05:17:47;9.23;;;7.10;;
65636;SDS011;52327;42.622;23.316;2022-08-18T05:20:12;12.38;;;7.43;;
65636;SDS011;52327;42.622;23.316;2022-08-18T05:22:38;8.95;;;7.00;;
65636;SDS011;52327;42.622;23.316;2022-08-18T05:25:06;9.00;;;7.65;;
65636;SDS011;52327;42.622;23.316;2022-08-18T05:27:33;11.25;;;7.35;;
65636;SDS011;52327;42.622;23.316;2022-08-18T05:30:00;14.25;;;9.32;;
65636;SDS011;52327;42.622;23.316;2022-08-18T05:32:27;15.80;;;7.88;;
65636;SDS011;52327;42.622;23.316;2022-08-18T05:34:55;11.60;;;8.38;;
65636;SDS011;52327;42.622;23.316;2022-08-18T05:37:27;11.63;;;6.65;;
65636;SDS011;52327;42.622;23.316;2022-08-18T05:40:00;9.35;;;7.32;;
65636;SDS011;52327;42.622;23.316;2022-08-18T05:42:29;9.68;;;7.63;;
65636;SDS011;52327;42.622;23.316;2022-08-18T05:44:57;11.70;;;7.82;;
65636;SDS011;52327;42.622;23.316;2022-08-18T05:47:28;9.95;;;7.43;;
65636;SDS011;52327;42.622;23.316;2022-08-18T05:49:56;13.35;;;7.43;;
65636;SDS011;52327;42.622;23.316;2022-08-18T05:52:30;9.77;;;7.63;;
65636;SDS011;52327;42.622;23.316;2022-08-18T05:55:18;8.30;;;7.45;;
65636;SDS011;52327;42.622;23.316;2022-08-18T05:58:22;11.43;;;7.22;;
65636;SDS011;52327;42.622;23.316;2022-08-18T06:00:57;11.32;;;7.70;;
65636;SDS011;52327;42.622;23.316;2022-08-18T06:03:31;12.93;;;8.10;;
65636;SDS011;52327;42.622;23.316;2022-08-18T06:06:10;9.10;;;7.07;;
65636;SDS011;52327;42.622;23.316;2022-08-18T06:09:09;12.10;;;8.25;;
65636;SDS011;52327;42.622;23.316;2022-08-18T06:11:48;10.57;;;7.30;;
65636;SDS011;52327;42.622;23.316;2022-08-18T06:14:23;12.85;;;8.00;;
65636;SDS011;52327;42.622;23.316;2022-08-18T06:22:20;12.35;;;7.43;;
65636;SDS011;52327;42.622;23.316;2022-08-18T06:25:15;13.23;;;7.95;;
65636;SDS011;52327;42.622;23.316;2022-08-18T06:28:10;11.38;;;7.82;;
65636;SDS011;52327;42.622;23.316;2022-08-18T06:30:48;12.25;;;8.05;;
65636;SDS011;52327;42.622;23.316;2022-08-18T06:37:17;11.35;;;8.27;;
65636;SDS011;52327;42.622;23.316;2022-08-18T06:39:52;10.75;;;8.07;;
65636;SDS011;52327;42.622;23.316;2022-08-18T06:42:21;14.10;;;7.82;;
65636;SDS011;52327;42.622;23.316;2022-08-18T06:45:02;15.02;;;7.82;;
65636;SDS011;52327;42.622;23.316;2022-08-18T06:48:02;11.85;;;8.40;;
65636;SDS011;52327;42.622;23.316;2022-08-18T06:50:57;11.85;;;7.32;;
65636;SDS011;52327;42.622;23.316;2022-08-18T06:56:57;11.02;;;8.23;;
65636;SDS011;52327;42.622;23.316;2022-08-18T06:59:33;12.85;;;7.00;;
65636;SDS011;52327;42.622;23.316;2022-08-18T07:02:36;10.60;;;7.05;;
65636;SDS011;52327;42.622;23.316;2022-08-18T07:05:32;8.70;;;7.45;;
65636;SDS011;52327;42.622;23.316;2022-08-18T07:13:54;9.20;;;7.45;;
65636;SDS011;52327;42.622;23.316;2022-08-18T07:16:39;10.65;;;7.05;;
65636;SDS011;52327;42.622;23.316;2022-08-18T07:19:09;9.30;;;6.40;;
65636;SDS011;52327;42.622;23.316;2022-08-18T07:21:36;9.73;;;6.82;;
65636;SDS011;52327;42.622;23.316;2022-08-18T07:24:20;11.40;;;6.55;;
65636;SDS011;52327;42.622;23.316;2022-08-18T07:27:14;8.38;;;6.97;;
65636;SDS011;52327;42.622;23.316;2022-08-18T07:30:04;9.02;;;6.22;;
65636;SDS011;52327;42.622;23.316;2022-08-18T07:35:54;10.25;;;6.60;;
65636;SDS011;52327;42.622;23.316;2022-08-18T07:38:37;9.35;;;5.45;;
65636;SDS011;52327;42.622;23.316;2022-08-18T07:41:15;6.57;;;5.20;;
65636;SDS011;52327;42.622;23.316;2022-08-18T07:46:20;6.90;;;5.22;;
65636;SDS011;52327;42.622;23.316;2022-08-18T07:48:54;9.48;;;5.35;;
65636;SDS011;52327;42.622;23.316;2022-08-18T08:04:43;6.43;;;4.85;;
65636;SDS011;52327;42.622;23.316;2022-08-18T08:07:19;5.53;;;4.13;;
65636;SDS011;52327;42.622;23.316;2022-08-18T08:20:44;6.15;;;4.65;;
65636;SDS011;52327;42.622;23.316;2022-08-18T08:34:37;5.05;;;3.78;;
65636;SDS011;52327;42.622;23.316;2022-08-18T08:37:09;6.47;;;3.88;;
65636;SDS011;52327;42.622;23.316;2022-08-18T08:39:47;5.75;;;3.95;;
65636;SDS011;52327;42.622;23.316;2022-08-18T08:45:17;5.40;;;3.83;;
65636;SDS011;52327;42.622;23.316;2022-08-18T08:48:00;4.03;;;3.53;;
65636;SDS011;52327;42.622;23.316;2022-08-18T08:50:33;7.82;;;4.20;;
65636;SDS011;52327;42.622;23.316;2022-08-18T08:55:48;11.63;;;4.22;;
65636;SDS011;52327;42.622;23.316;2022-08-18T09:01:21;4.57;;;4.15;;
65636;SDS011;52327;42.622;23.316;2022-08-18T09:03:58;5.72;;;4.53;;
65636;SDS011;52327;42.622;23.316;2022-08-18T09:06:47;5.13;;;4.35;;
65636;SDS011;52327;42.622;23.316;2022-08-18T09:09:48;4.68;;;3.60;;
65636;SDS011;52327;42.622;23.316;2022-08-18T09:12:23;7.20;;;4.28;;
65636;SDS011;52327;42.622;23.316;2022-08-18T09:20:46;4.53;;;3.63;;
65636;SDS011;52327;42.622;23.316;2022-08-18T09:23:08;5.03;;;3.83;;
65636;SDS011;52327;42.622;23.316;2022-08-18T09:28:10;4.63;;;3.17;;
65636;SDS011;52327;42.622;23.316;2022-08-18T09:36:00;6.35;;;3.65;;
65636;SDS011;52327;42.622;23.316;2022-08-18T09:38:38;4.22;;;3.35;;
65636;SDS011;52327;42.622;23.316;2022-08-18T09:41:34;6.95;;;3.60;;
65636;SDS011;52327;42.622;23.316;2022-08-18T09:44:11;6.05;;;3.90;;
65636;SDS011;52327;42.622;23.316;2022-08-18T09:51:47;4.03;;;3.30;;
65636;SDS011;52327;42.622;23.316;2022-08-18T09:54:47;5.20;;;2.78;;
65636;SDS011;52327;42.622;23.316;2022-08-18T09:57:18;5.82;;;2.65;;
65636;SDS011;52327;42.622;23.316;2022-08-18T10:12:11;4.13;;;3.08;;
65636;SDS011;52327;42.622;23.316;2022-08-18T10:21:28;3.58;;;3.22;;
65636;SDS011;52327;42.622;23.316;2022-08-18T10:24:15;6.28;;;3.53;;
65636;SDS011;52327;42.622;23.316;2022-08-18T10:29:09;4.00;;;3.60;;
65636;SDS011;52327;42.622;23.316;2022-08-18T10:40:23;4.20;;;3.58;;
65636;SDS011;52327;42.622;23.316;2022-08-18T10:45:45;4.20;;;3.80;;
65636;SDS011;52327;42.622;23.316;2022-08-18T10:56:32;3.97;;;3.67;;
65636;SDS011;52327;42.622;23.316;2022-08-18T10:59:12;3.80;;;3.33;;
65636;SDS011;52327;42.622;23.316;2022-08-18T11:01:53;3.88;;;3.50;;
65636;SDS011;52327;42.622;23.316;2022-08-18T11:04:30;5.15;;;4.20;;
65636;SDS011;52327;42.622;23.316;2022-08-18T11:09:29;6.00;;;3.55;;
65636;SDS011;52327;42.622;23.316;2022-08-18T11:11:56;4.38;;;3.60;;
65636;SDS011;52327;42.622;23.316;2022-08-18T11:14:36;5.72;;;3.53;;
65636;SDS011;52327;42.622;23.316;2022-08-18T11:17:15;8.50;;;3.95;;
65636;SDS011;52327;42.622;23.316;2022-08-18T11:19:48;7.22;;;4.00;;
65636;SDS011;52327;42.622;23.316;2022-08-18T11:24:49;4.22;;;3.40;;
65636;SDS011;52327;42.622;23.316;2022-08-18T11:27:23;4.47;;;3.65;;
65636;SDS011;52327;42.622;23.316;2022-08-18T11:29:51;4.80;;;3.83;;
65636;SDS011;52327;42.622;23.316;2022-08-18T11:37:23;4.75;;;3.45;;
65636;SDS011;52327;42.622;23.316;2022-08-18T11:39:57;3.88;;;3.00;;
65636;SDS011;52327;42.622;23.316;2022-08-18T11:42:32;4.97;;;3.60;;
65636;SDS011;52327;42.622;23.316;2022-08-18T11:45:03;5.18;;;3.10;;
65636;SDS011;52327;42.622;23.316;2022-08-18T11:47:32;4.18;;;3.25;;
65636;SDS011;52327;42.622;23.316;2022-08-18T11:50:09;4.80;;;3.45;;
65636;SDS011;52327;42.622;23.316;2022-08-18T11:52:46;4.00;;;3.33;;
65636;SDS011;52327;42.622;23.316;2022-08-18T11:55:19;4.97;;;3.17;;
65636;SDS011;52327;42.622;23.316;2022-08-18T11:57:57;3.42;;;3.03;;
65636;SDS011;52327;42.622;23.316;2022-08-18T12:03:15;3.08;;;2.78;;
65636;SDS011;52327;42.622;23.316;2022-08-18T12:05:47;4.03;;;3.33;;
65636;SDS011;52327;42.622;23.316;2022-08-18T12:08:20;5.70;;;3.00;;
65636;SDS011;52327;42.622;23.316;2022-08-18T12:11:14;3.40;;;3.10;;
65636;SDS011;52327;42.622;23.316;2022-08-18T12:13:46;6.90;;;3.40;;
65636;SDS011;52327;42.622;23.316;2022-08-18T12:16:34;5.82;;;3.60;;
65636;SDS011;52327;42.622;23.316;2022-08-18T12:19:08;3.85;;;3.28;;
65636;SDS011;52327;42.622;23.316;2022-08-18T12:21:39;3.58;;;3.17;;
65636;SDS011;52327;42.622;23.316;2022-08-18T12:24:09;7.07;;;3.22;;
65636;SDS011;52327;42.622;23.316;2022-08-18T12:26:46;4.20;;;3.45;;
65636;SDS011;52327;42.622;23.316;2022-08-18T12:29:12;4.20;;;3.15;;
65636;SDS011;52327;42.622;23.316;2022-08-18T12:31:39;4.28;;;3.30;;
65636;SDS011;52327;42.622;23.316;2022-08-18T12:34:04;5.63;;;3.30;;
65636;SDS011;52327;42.622;23.316;2022-08-18T12:36:30;3.97;;;3.58;;
65636;SDS011;52327;42.622;23.316;2022-08-18T12:38:55;3.35;;;3.03;;
65636;SDS011;52327;42.622;23.316;2022-08-18T12:41:21;4.38;;;3.28;;
65636;SDS011;52327;42.622;23.316;2022-08-18T12:43:49;4.82;;;3.75;;
65636;SDS011;52327;42.622;23.316;2022-08-18T12:46:17;3.47;;;3.17;;
65636;SDS011;52327;42.622;23.316;2022-08-18T12:48:42;5.30;;;3.20;;
65636;SDS011;52327;42.622;23.316;2022-08-18T12:51:08;3.80;;;3.20;;
65636;SDS011;52327;42.622;23.316;2022-08-18T12:53:33;4.30;;;3.60;;
65636;SDS011;52327;42.622;23.316;2022-08-18T12:55:58;4.15;;;3.55;;
65636;SDS011;52327;42.622;23.316;2022-08-18T12:58:24;3.85;;;3.35;;
65636;SDS011;52327;42.622;23.316;2022-08-18T13:00:51;6.22;;;3.50;;
65636;SDS011;52327;42.622;23.316;2022-08-18T13:03:16;6.70;;;3.75;;
65636;SDS011;52327;42.622;23.316;2022-08-18T13:05:43;4.47;;;3.33;;
65636;SDS011;52327;42.622;23.316;2022-08-18T13:08:12;3.85;;;3.53;;
65636;SDS011;52327;42.622;23.316;2022-08-18T13:10:43;4.38;;;3.58;;
65636;SDS011;52327;42.622;23.316;2022-08-18T13:13:15;4.07;;;3.53;;
65636;SDS011;52327;42.622;23.316;2022-08-18T13:15:42;4.75;;;3.67;;
65636;SDS011;52327;42.622;23.316;2022-08-18T13:18:08;6.43;;;4.15;;
65636;SDS011;52327;42.622;23.316;2022-08-18T13:20:33;7.63;;;3.47;;
65636;SDS011;52327;42.622;23.316;2022-08-18T13:23:00;3.85;;;3.20;;
65636;SDS011;52327;42.622;23.316;2022-08-18T13:25:26;6.70;;;3.28;;
65636;SDS011;52327;42.622;23.316;2022-08-18T13:27:51;4.35;;;3.42;;
65636;SDS011;52327;42.622;23.316;2022-08-18T13:30:17;6.03;;;3.70;;
65636;SDS011;52327;42.622;23.316;2022-08-18T13:32:43;3.60;;;3.30;;
65636;SDS011;52327;42.622;23.316;2022-08-18T13:35:09;4.65;;;3.60;;
65636;SDS011;52327;42.622;23.316;2022-08-18T13:37:35;3.92;;;3.38;;
65636;SDS011;52327;42.622;23.316;2022-08-18T13:40:01;6.55;;;3.72;;
65636;SDS011;52327;42.622;23.316;2022-08-18T13:42:27;3.90;;;3.50;;
65636;SDS011;52327;42.622;23.316;2022-08-18T13:44:53;4.25;;;3.17;;
65636;SDS011;52327;42.622;23.316;2022-08-18T13:47:22;3.95;;;3.17;;
65636;SDS011;52327;42.622;23.316;2022-08-18T13:49:48;4.03;;;3.45;;
65636;SDS011;52327;42.622;23.316;2022-08-18T13:52:13;3.83;;;3.42;;
65636;SDS011;52327;42.622;23.316;2022-08-18T13:54:39;5.70;;;3.60;;
65636;SDS011;52327;42.622;23.316;2022-08-18T13:57:04;4.57;;;3.63;;
65636;SDS011;52327;42.622;23.316;2022-08-18T13:59:30;6.43;;;3.60;;
65636;SDS011;52327;42.622;23.316;2022-08-18T14:01:58;6.38;;;3.40;;
65636;SDS011;52327;42.622;23.316;2022-08-18T14:04:25;4.82;;;3.63;;
65636;SDS011;52327;42.622;23.316;2022-08-18T14:06:51;4.90;;;3.35;;
65636;SDS011;52327;42.622;23.316;2022-08-18T14:09:17;4.30;;;3.28;;
65636;SDS011;52327;42.622;23.316;2022-08-18T14:11:43;4.32;;;3.08;;
65636;SDS011;52327;42.622;23.316;2022-08-18T14:14:08;6.10;;;3.67;;
65636;SDS011;52327;42.622;23.316;2022-08-18T14:16:34;4.05;;;3.30;;
65636;SDS011;52327;42.622;23.316;2022-08-18T14:19:00;4.45;;;3.00;;
65636;SDS011;52327;42.622;23.316;2022-08-18T14:21:46;3.65;;;3.35;;
65636;SDS011;52327;42.622;23.316;2022-08-18T14:24:33;4.18;;;3.78;;
65636;SDS011;52327;42.622;23.316;2022-08-18T14:27:19;5.45;;;3.30;;
65636;SDS011;52327;42.622;23.316;2022-08-18T14:29:51;4.10;;;3.70;;
65636;SDS011;52327;42.622;23.316;2022-08-18T14:32:17;3.50;;;3.20;;
65636;SDS011;52327;42.622;23.316;2022-08-18T14:34:44;4.40;;;3.55;;
65636;SDS011;52327;42.622;23.316;2022-08-18T14:37:10;3.50;;;3.20;;
65636;SDS011;52327;42.622;23.316;2022-08-18T14:39:35;3.33;;;3.00;;
65636;SDS011;52327;42.622;23.316;2022-08-18T14:42:02;4.82;;;3.40;;
65636;SDS011;52327;42.622;23.316;2022-08-18T14:44:28;3.58;;;3.22;;
65636;SDS011;52327;42.622;23.316;2022-08-18T14:46:54;7.32;;;3.60;;
65636;SDS011;52327;42.622;23.316;2022-08-18T14:49:22;3.92;;;3.38;;
65636;SDS011;52327;42.622;23.316;2022-08-18T14:51:48;4.55;;;3.45;;
65636;SDS011;52327;42.622;23.316;2022-08-18T14:54:13;3.78;;;3.30;;
65636;SDS011;52327;42.622;23.316;2022-08-18T14:56:38;5.32;;;3.90;;
65636;SDS011;52327;42.622;23.316;2022-08-18T14:59:04;3.50;;;3.08;;
65636;SDS011;52327;42.622;23.316;2022-08-18T15:01:31;5.03;;;3.33;;
65636;SDS011;52327;42.622;23.316;2022-08-18T15:04:00;4.03;;;3.60;;
65636;SDS011;52327;42.622;23.316;2022-08-18T15:06:26;4.53;;;3.20;;
65636;SDS011;52327;42.622;23.316;2022-08-18T15:08:52;5.82;;;3.67;;
65636;SDS011;52327;42.622;23.316;2022-08-18T15:11:18;4.95;;;4.35;;
65636;SDS011;52327;42.622;23.316;2022-08-18T15:13:43;4.68;;;3.65;;
65636;SDS011;52327;42.622;23.316;2022-08-18T15:16:10;3.90;;;3.33;;
65636;SDS011;52327;42.622;23.316;2022-08-18T15:18:40;4.28;;;3.80;;
65636;SDS011;52327;42.622;23.316;2022-08-18T15:21:07;4.95;;;3.72;;
65636;SDS011;52327;42.622;23.316;2022-08-18T15:23:52;4.28;;;3.88;;
65636;SDS011;52327;42.622;23.316;2022-08-18T15:26:35;5.35;;;3.97;;
65636;SDS011;52327;42.622;23.316;2022-08-18T15:29:03;4.70;;;4.28;;
65636;SDS011;52327;42.622;23.316;2022-08-18T15:34:00;4.35;;;3.83;;
65636;SDS011;52327;42.622;23.316;2022-08-18T15:36:25;4.50;;;4.07;;
65636;SDS011;52327;42.622;23.316;2022-08-18T15:38:51;6.93;;;4.28;;
65636;SDS011;52327;42.622;23.316;2022-08-18T15:41:38;4.47;;;4.07;;
65636;SDS011;52327;42.622;23.316;2022-08-18T15:44:09;4.10;;;3.45;;
65636;SDS011;52327;42.622;23.316;2022-08-18T15:46:36;4.75;;;4.13;;
65636;SDS011;52327;42.622;23.316;2022-08-18T15:49:03;4.00;;;3.55;;
65636;SDS011;52327;42.622;23.316;2022-08-18T15:51:31;6.32;;;3.97;;
65636;SDS011;52327;42.622;23.316;2022-08-18T15:54:01;5.07;;;3.90;;
65636;SDS011;52327;42.622;23.316;2022-08-18T15:56:27;5.28;;;3.90;;
65636;SDS011;52327;42.622;23.316;2022-08-18T15:58:53;6.20;;;3.60;;
65636;SDS011;52327;42.622;23.316;2022-08-18T16:01:19;4.25;;;3.78;;
65636;SDS011;52327;42.622;23.316;2022-08-18T16:03:46;5.47;;;4.13;;
65636;SDS011;52327;42.622;23.316;2022-08-18T16:06:17;5.85;;;4.15;;
65636;SDS011;52327;42.622;23.316;2022-08-18T16:08:46;3.97;;;3.53;;
65636;SDS011;52327;42.622;23.316;2022-08-18T16:11:12;5.63;;;3.75;;
65636;SDS011;52327;42.622;23.316;2022-08-18T16:13:39;4.32;;;3.92;;
65636;SDS011;52327;42.622;23.316;2022-08-18T16:16:12;6.00;;;4.05;;
65636;SDS011;52327;42.622;23.316;2022-08-18T16:18:40;5.43;;;4.85;;
65636;SDS011;52327;42.622;23.316;2022-08-18T16:21:06;5.60;;;4.43;;
65636;SDS011;52327;42.622;23.316;2022-08-18T16:23:36;4.90;;;4.40;;
65636;SDS011;52327;42.622;23.316;2022-08-18T16:26:02;6.40;;;4.18;;
65636;SDS011;52327;42.622;23.316;2022-08-18T16:28:28;6.35;;;4.65;;
65636;SDS011;52327;42.622;23.316;2022-08-18T16:30:53;5.22;;;4.07;;
65636;SDS011;52327;42.622;23.316;2022-08-18T16:33:19;5.38;;;3.92;;
65636;SDS011;52327;42.622;23.316;2022-08-18T16:35:46;4.70;;;4.28;;
65636;SDS011;52327;42.622;23.316;2022-08-18T16:38:13;6.05;;;4.28;;
65636;SDS011;52327;42.622;23.316;2022-08-18T16:40:39;5.82;;;4.38;;
65636;SDS011;52327;42.622;23.316;2022-08-18T16:43:05;5.05;;;4.35;;
65636;SDS011;52327;42.622;23.316;2022-08-18T16:45:31;6.25;;;4.55;;
65636;SDS011;52327;42.622;23.316;2022-08-18T16:47:59;5.95;;;4.50;;
65636;SDS011;52327;42.622;23.316;2022-08-18T16:50:26;6.53;;;4.95;;
65636;SDS011;52327;42.622;23.316;2022-08-18T16:52:52;5.22;;;4.72;;
65636;SDS011;52327;42.622;23.316;2022-08-18T16:55:18;10.88;;;4.78;;
65636;SDS011;52327;42.622;23.316;2022-08-18T16:57:44;7.03;;;4.65;;
65636;SDS011;52327;42.622;23.316;2022-08-18T17:00:29;6.78;;;4.25;;
65636;SDS011;52327;42.622;23.316;2022-08-18T17:03:14;4.88;;;4.47;;
65636;SDS011;52327;42.622;23.316;2022-08-18T17:08:49;6.38;;;4.40;;
65636;SDS011;52327;42.622;23.316;2022-08-18T17:11:34;5.93;;;4.45;;
65636;SDS011;52327;42.622;23.316;2022-08-18T17:14:07;5.30;;;4.40;;
65636;SDS011;52327;42.622;23.316;2022-08-18T17:16:35;4.47;;;4.07;;
65636;SDS011;52327;42.622;23.316;2022-08-18T17:19:13;7.35;;;4.40;;
65636;SDS011;52327;42.622;23.316;2022-08-18T17:21:47;5.05;;;4.25;;
65636;SDS011;52327;42.622;23.316;2022-08-18T17:24:19;4.82;;;4.40;;
65636;SDS011;52327;42.622;23.316;2022-08-18T17:36:03;5.18;;;4.20;;
65636;SDS011;52327;42.622;23.316;2022-08-18T17:38:41;4.65;;;4.15;;